createdAt,value
2022-08-22T00:02:46.133Z,76.60
2022-08-22T00:03:16.084Z,95.60
2022-08-22T00:08:12.541Z,97.50
2022-08-22T00:13:22.803Z,98.10
2022-08-22T00:18:31.949Z,98.60
2022-08-22T00:23:42.890Z,99.00
2022-08-22T00:28:51.262Z,99.80
2022-08-22T00:34:02.961Z,99.90
2022-08-22T00:39:14.955Z,99.90
2022-08-22T00:44:47.480Z,99.90
2022-08-22T00:50:10.506Z,99.90
2022-08-22T00:55:39.289Z,99.90
2022-08-22T01:00:47.969Z,99.90
2022-08-22T01:06:07.188Z,99.90
2022-08-22T01:11:27.143Z,99.90
2022-08-22T01:16:54.738Z,99.90
2022-08-22T01:22:25.949Z,99.90
2022-08-22T01:28:16.156Z,99.90
2022-08-22T01:33:53.941Z,99.90
2022-08-22T01:39:26.715Z,99.90
2022-08-22T01:44:55.408Z,99.90
2022-08-22T01:50:03.457Z,99.90
2022-08-22T01:55:14.378Z,99.90
2022-08-22T02:00:19.997Z,99.90
2022-08-22T02:05:48.228Z,99.90
2022-08-22T02:11:00.611Z,99.90
2022-08-22T02:16:11.766Z,99.90
2022-08-22T02:21:22.025Z,99.90
2022-08-22T02:26:30.538Z,99.90
2022-08-22T02:31:42.534Z,99.90
2022-08-22T02:36:51.079Z,99.90
2022-08-22T02:41:59.995Z,99.90
2022-08-22T02:47:11.001Z,99.90
2022-08-22T02:52:18.292Z,99.90
2022-08-22T02:57:31.560Z,99.90
2022-08-22T03:02:47.720Z,99.90
2022-08-22T03:07:58.071Z,99.90
2022-08-22T03:13:10.334Z,99.90
2022-08-22T03:18:22.029Z,99.90
2022-08-22T03:23:35.447Z,99.90
2022-08-22T03:28:59.471Z,99.90
2022-08-22T03:34:22.382Z,99.90
2022-08-22T03:39:43.198Z,99.90
2022-08-22T03:45:23.329Z,99.90
2022-08-22T03:50:54.476Z,99.90
2022-08-22T03:56:25.590Z,99.90
2022-08-22T04:01:56.410Z,99.90
2022-08-22T04:07:35.079Z,99.90
2022-08-22T04:13:03.699Z,99.90
2022-08-22T04:18:25.296Z,99.90
2022-08-22T04:23:58.059Z,99.90
2022-08-22T04:29:06.725Z,99.90
2022-08-22T04:34:20.594Z,99.90
2022-08-22T04:39:35.697Z,99.90
2022-08-22T04:44:43.931Z,99.90
2022-08-22T04:49:52.925Z,99.90
2022-08-22T04:55:04.462Z,99.90
2022-08-22T05:00:10.429Z,99.90
2022-08-22T05:05:18.521Z,99.90
2022-08-22T05:10:25.208Z,99.90
2022-08-22T05:15:33.889Z,99.90
2022-08-22T05:20:41.131Z,99.90
2022-08-22T05:25:46.780Z,99.90
2022-08-22T05:30:51.309Z,99.90
2022-08-22T05:35:59.316Z,99.90
2022-08-22T05:41:06.577Z,99.90
2022-08-22T05:46:27.086Z,99.90
2022-08-22T05:51:40.549Z,99.90
2022-08-22T05:56:48.280Z,99.90
2022-08-22T06:02:03.184Z,99.90
2022-08-22T06:07:16.626Z,99.90
2022-08-22T06:12:27.352Z,99.90
2022-08-22T06:17:36.615Z,99.90
2022-08-22T06:22:46.874Z,99.90
2022-08-22T06:27:52.637Z,99.90
2022-08-22T06:33:12.330Z,99.90
2022-08-22T06:38:17.861Z,99.90
2022-08-22T06:43:21.839Z,99.90
2022-08-22T06:48:28.190Z,99.90
2022-08-22T06:53:42.362Z,99.90
2022-08-22T06:58:53.851Z,99.90
2022-08-22T07:04:01.455Z,99.90
2022-08-22T07:09:07.377Z,99.90
2022-08-22T07:14:12.318Z,99.90
2022-08-22T07:19:25.555Z,99.90
2022-08-22T07:24:32.912Z,99.90
2022-08-22T07:29:47.536Z,99.90
2022-08-22T07:35:07.276Z,99.90
2022-08-22T07:40:23.353Z,99.90
2022-08-22T07:45:36.174Z,99.90
2022-08-22T07:50:47.346Z,99.90
2022-08-22T07:55:53.725Z,99.90
2022-08-22T08:00:57.911Z,99.90
2022-08-22T08:06:02.225Z,99.90
2022-08-22T08:11:10.595Z,99.90
2022-08-22T08:16:20.698Z,99.90
2022-08-22T08:21:30.563Z,99.90
2022-08-22T08:27:29.039Z,99.90
2022-08-22T08:32:37.391Z,99.90
2022-08-22T08:37:46.432Z,99.90
2022-08-22T08:43:20.973Z,99.90
2022-08-22T08:48:58.467Z,99.90
2022-08-22T08:54:32.959Z,99.90
2022-08-22T08:59:50.605Z,99.90
2022-08-22T09:05:44.426Z,99.90
2022-08-22T09:11:30.593Z,99.90
2022-08-22T09:16:51.785Z,99.90
2022-08-22T09:22:19.637Z,99.90
2022-08-22T09:27:32.087Z,99.90
2022-08-22T09:32:45.136Z,99.90
2022-08-22T09:38:19.746Z,99.90
2022-08-22T09:43:34.429Z,99.90
2022-08-22T09:48:49.415Z,99.90
2022-08-22T09:54:15.775Z,99.90
2022-08-22T09:59:26.698Z,99.90
2022-08-22T10:04:44.247Z,99.90
2022-08-22T10:10:02.713Z,99.90
2022-08-22T10:15:18.991Z,99.90
2022-08-22T10:20:30.842Z,99.90
2022-08-22T10:25:41.773Z,99.90
2022-08-22T10:31:05.445Z,99.90
2022-08-22T10:36:13.446Z,99.60
2022-08-22T10:41:36.763Z,98.70
2022-08-22T10:46:44.651Z,97.90
2022-08-22T10:51:52.836Z,97.00
2022-08-22T10:57:09.462Z,96.10
2022-08-22T11:02:31.888Z,95.60
2022-08-22T11:07:48.762Z,95.00
2022-08-22T11:13:12.121Z,94.50
2022-08-22T11:18:27.752Z,93.80
2022-08-22T11:23:57.380Z,93.40
2022-08-22T11:29:19.966Z,93.10
2022-08-22T11:34:39.626Z,92.30
2022-08-22T11:39:50.347Z,91.80
2022-08-22T11:44:58.533Z,91.00
2022-08-22T11:50:14.613Z,90.80
2022-08-22T11:55:32.573Z,90.30
2022-08-22T12:00:57.402Z,89.20
2022-08-22T12:06:08.261Z,88.40
2022-08-22T12:11:15.192Z,87.00
2022-08-22T12:16:27.208Z,86.00
2022-08-22T12:21:56.485Z,84.90
2022-08-22T12:27:28.893Z,84.00
2022-08-22T12:33:10.577Z,83.10
2022-08-22T12:38:36.077Z,81.80
2022-08-22T12:43:51.023Z,80.70
2022-08-22T12:49:21.234Z,80.00
2022-08-22T12:54:48.263Z,79.30
2022-08-22T12:59:55.280Z,78.80
2022-08-22T13:05:09.538Z,78.70
2022-08-22T13:10:38.770Z,79.00
2022-08-22T13:15:53.537Z,76.60
2022-08-22T13:21:00.119Z,75.80
2022-08-22T13:26:10.364Z,75.30
2022-08-22T13:31:24.853Z,74.60
2022-08-22T13:36:29.527Z,73.90
2022-08-22T13:41:44.237Z,73.00
2022-08-22T13:47:11.139Z,72.80
2022-08-22T13:52:29.731Z,72.20
2022-08-22T13:57:38.386Z,71.90
2022-08-22T14:02:56.873Z,71.40
2022-08-22T14:08:12.928Z,70.70
2022-08-22T14:13:38.410Z,69.80
2022-08-22T14:18:48.410Z,69.10
2022-08-22T14:23:53.033Z,68.60
2022-08-22T14:29:01.517Z,68.10
2022-08-22T14:34:10.448Z,67.40
2022-08-22T14:39:27.906Z,66.90
2022-08-22T14:44:39.189Z,66.50
2022-08-22T14:49:52.699Z,65.90
2022-08-22T14:55:13.087Z,65.30
2022-08-22T15:00:28.668Z,65.00
2022-08-22T15:05:44.956Z,64.30
2022-08-22T15:10:49.405Z,63.80
2022-08-22T15:15:56.010Z,63.50
2022-08-22T15:21:08.599Z,63.20
2022-08-22T15:26:20.772Z,62.50
2022-08-22T15:31:33.752Z,62.40
2022-08-22T15:37:29.558Z,62.10
2022-08-22T15:42:40.317Z,61.80
2022-08-22T15:47:55.113Z,61.60
2022-08-22T15:53:15.701Z,61.20
2022-08-22T15:58:24.352Z,60.90
2022-08-22T16:03:33.439Z,60.40
2022-08-22T16:08:49.675Z,60.00
2022-08-22T16:14:18.911Z,59.90
2022-08-22T16:19:34.551Z,59.80
2022-08-22T16:25:01.481Z,59.20
2022-08-22T16:30:14.650Z,59.00
2022-08-22T16:35:50.885Z,58.90
2022-08-22T16:40:55.444Z,58.60
2022-08-22T16:45:59.443Z,58.50
2022-08-22T16:51:12.016Z,58.30
2022-08-22T16:56:28.548Z,58.10
2022-08-22T17:02:14.655Z,58.00
2022-08-22T17:07:32.182Z,57.80
2022-08-22T17:12:50.601Z,57.30
2022-08-22T17:18:12.170Z,57.00
2022-08-22T17:23:23.602Z,56.80
2022-08-22T17:28:39.658Z,56.60
2022-08-22T17:34:02.936Z,56.60
2022-08-22T17:39:34.634Z,56.50
2022-08-22T17:44:47.984Z,56.60
2022-08-22T17:49:57.855Z,56.50
2022-08-22T17:55:17.129Z,56.60
2022-08-22T18:00:32.836Z,56.30
2022-08-22T18:05:40.624Z,56.10
2022-08-22T18:10:48.685Z,56.00
2022-08-22T18:15:57.473Z,56.00
2022-08-22T18:21:07.475Z,56.00
2022-08-22T18:26:27.625Z,55.80
2022-08-22T18:31:39.863Z,56.50
2022-08-22T18:36:54.860Z,55.90
2022-08-22T18:42:05.300Z,56.00
2022-08-22T18:47:21.796Z,55.90
2022-08-22T18:52:55.911Z,56.00
2022-08-22T18:58:27.622Z,56.00
2022-08-22T19:03:47.745Z,56.10
2022-08-22T19:09:28.478Z,55.80
2022-08-22T19:14:51.107Z,56.10
2022-08-22T19:20:19.508Z,56.20
2022-08-22T19:25:26.499Z,56.30
2022-08-22T19:30:46.886Z,56.20
2022-08-22T19:36:29.348Z,56.10
2022-08-22T19:41:45.341Z,55.90
2022-08-22T19:47:07.617Z,55.60
2022-08-22T19:52:32.065Z,56.00
2022-08-22T19:57:43.104Z,56.60
2022-08-22T20:03:02.708Z,56.50
2022-08-22T20:08:31.129Z,56.70
2022-08-22T20:13:36.955Z,56.90
2022-08-22T20:19:16.101Z,57.20
2022-08-22T20:24:27.588Z,57.50
2022-08-22T20:29:37.515Z,57.80
2022-08-22T20:34:40.624Z,58.00
2022-08-22T20:39:58.651Z,58.30
2022-08-22T20:45:03.844Z,58.70
2022-08-22T20:50:18.835Z,58.80
2022-08-22T20:55:31.747Z,59.00
2022-08-22T21:00:41.071Z,59.30
2022-08-22T21:05:46.369Z,59.20
2022-08-22T21:11:18.114Z,59.40
2022-08-22T21:16:31.241Z,59.40
2022-08-22T21:21:36.327Z,59.60
2022-08-22T21:26:47.585Z,59.50
2022-08-22T21:31:57.833Z,59.60
2022-08-22T21:37:13.461Z,59.70
2022-08-22T21:42:25.078Z,59.90
2022-08-22T21:47:32.645Z,59.90
2022-08-22T21:52:37.495Z,60.00
2022-08-22T21:57:41.875Z,60.20
2022-08-22T22:02:44.827Z,60.40
2022-08-22T22:07:48.819Z,60.40
2022-08-22T22:12:56.529Z,60.50
2022-08-22T22:18:00.193Z,60.50
2022-08-22T22:23:04.657Z,60.60
2022-08-22T22:28:12.157Z,60.70
2022-08-22T22:33:15.314Z,60.90
2022-08-22T22:38:23.753Z,61.10
2022-08-22T22:43:28.500Z,61.30
2022-08-22T22:48:31.464Z,61.50
2022-08-22T22:53:40.321Z,61.60
2022-08-22T22:58:47.587Z,61.90
2022-08-22T23:03:55.101Z,62.00
2022-08-22T23:08:59.019Z,62.20
2022-08-22T23:14:03.802Z,62.40
2022-08-22T23:19:09.607Z,62.50
2022-08-22T23:24:14.479Z,62.50
2022-08-22T23:29:19.098Z,62.80
2022-08-22T23:34:24.154Z,62.90
2022-08-22T23:39:29.609Z,63.00
2022-08-22T23:44:36.125Z,63.10
2022-08-22T23:49:40.110Z,62.90
2022-08-22T23:54:43.219Z,63.40
2022-08-22T23:59:57.662Z,64.00
